Time;durP1;ratioP1;P1;durP2;ratioP2;P2;SDS_P1;SDS_P2;PMS_P1;PMS_P2;Temp;Humidity;BMP_temperature;BMP_pressure;BME280_temperature;BME280_humidity;BME280_pressure;Samples;Min_cycle;Max_cycle;Signal;HPM_P1;HPM_P2
2021/05/05 00:01:56;;;;;;;2.15;0.90;;;;;;;8.01;68.70;99127.91;5019155;28;20034;-71
2021/05/05 00:04:22;;;;;;;2.00;0.60;;;;;;;7.97;68.26;99134.13;5021439;28;20029;-72
2021/05/05 00:06:48;;;;;;;3.58;0.75;;;;;;;7.93;68.90;99119.28;5022931;28;20378;-71
2021/05/05 00:09:14;;;;;;;4.18;1.20;;;;;;;7.86;68.89;99131.69;5021641;28;20037;-71
2021/05/05 00:11:40;;;;;;;2.70;1.00;;;;;;;7.76;69.95;99125.72;5025542;28;20045;-72
2021/05/05 00:14:07;;;;;;;2.28;0.60;;;;;;;7.72;69.93;99128.41;5022561;28;20049;-72
2021/05/05 00:16:32;;;;;;;3.85;1.35;;;;;;;7.71;69.64;99137.19;5029259;28;20087;-72
2021/05/05 00:18:57;;;;;;;4.72;0.95;;;;;;;7.66;70.37;99124.13;5022990;28;20132;-72
2021/05/05 00:21:23;;;;;;;4.97;1.33;;;;;;;7.62;70.17;99127.69;5024341;28;20124;-71
2021/05/05 00:23:49;;;;;;;3.00;0.80;;;;;;;7.61;70.62;99126.84;5023967;28;20176;-72
2021/05/05 00:26:15;;;;;;;3.20;0.95;;;;;;;7.59;70.76;99138.25;5023579;28;20517;-72
2021/05/05 00:28:40;;;;;;;4.20;0.75;;;;;;;7.60;71.00;99130.38;5024575;28;20038;-71
2021/05/05 00:31:06;;;;;;;1.90;0.50;;;;;;;7.63;70.46;99124.19;5023045;28;20104;-72
2021/05/05 00:33:31;;;;;;;2.67;0.80;;;;;;;7.66;70.91;99122.38;5025417;28;20520;-70
2021/05/05 00:35:56;;;;;;;3.83;0.70;;;;;;;7.71;70.22;99132.81;5021981;28;20495;-72
2021/05/05 00:38:22;;;;;;;3.67;0.88;;;;;;;7.70;71.14;99128.44;5025529;28;20742;-72
2021/05/05 00:40:48;;;;;;;2.15;0.60;;;;;;;7.74;70.55;99127.50;5022822;28;20537;-72
2021/05/05 00:43:13;;;;;;;2.00;0.80;;;;;;;7.72;70.78;99123.16;5024171;28;20564;-72
2021/05/05 00:45:38;;;;;;;3.05;0.60;;;;;;;7.68;71.46;99119.75;5023251;28;20041;-71
2021/05/05 00:48:04;;;;;;;3.63;0.80;;;;;;;7.67;70.83;99117.97;5023393;28;20049;-72
2021/05/05 00:50:29;;;;;;;3.00;0.75;;;;;;;7.62;70.99;99125.97;5024044;28;20034;-71
2021/05/05 00:52:55;;;;;;;2.47;0.95;;;;;;;7.60;71.58;99119.88;5022252;28;20129;-71
2021/05/05 00:55:20;;;;;;;2.45;0.73;;;;;;;7.59;71.48;99127.75;5024920;28;20026;-72
2021/05/05 00:57:49;;;;;;;2.83;0.70;;;;;;;7.62;71.97;99122.44;5001251;28;20030;-71
2021/05/05 01:00:19;;;;;;;5.43;0.73;;;;;;;7.62;71.72;99117.19;5036833;28;20030;-72
2021/05/05 01:02:44;;;;;;;2.38;0.80;;;;;;;7.68;71.77;99119.75;5020023;28;20034;-72
2021/05/05 01:05:10;;;;;;;4.07;1.00;;;;;;;7.66;71.72;99108.38;5024820;28;20417;-72
2021/05/05 01:07:36;;;;;;;3.92;0.75;;;;;;;7.71;71.35;99100.44;5020640;28;20075;-72
2021/05/05 01:10:07;;;;;;;3.95;0.93;;;;;;;7.73;70.92;99110.03;5019775;28;20033;-72
2021/05/05 01:12:32;;;;;;;4.22;1.08;;;;;;;7.73;71.58;99112.66;5023443;28;20033;-71
2021/05/05 01:14:58;;;;;;;4.65;1.13;;;;;;;7.76;71.41;99107.34;5025986;28;20417;-72
2021/05/05 01:17:23;;;;;;;4.32;1.20;;;;;;;7.77;71.08;99110.81;5023267;28;20042;-71
2021/05/05 01:19:48;;;;;;;3.30;0.90;;;;;;;7.82;71.14;99099.34;5024686;28;20041;-72
2021/05/05 01:22:14;;;;;;;5.22;1.23;;;;;;;7.81;71.00;99110.75;5021258;28;20030;-72
2021/05/05 01:24:40;;;;;;;6.47;1.25;;;;;;;7.81;70.88;99104.63;5020602;28;20034;-71
2021/05/05 01:27:07;;;;;;;3.45;1.10;;;;;;;7.80;71.04;99108.13;5022938;28;20116;-72
2021/05/05 01:29:35;;;;;;;3.90;1.35;;;;;;;7.81;70.76;99108.13;5016666;28;20034;-71
2021/05/05 01:32:02;;;;;;;3.42;1.10;;;;;;;7.77;71.02;99108.19;5036008;28;20033;-72
2021/05/05 01:34:27;;;;;;;4.03;1.20;;;;;;;7.74;71.46;99116.13;5024525;28;20485;-72
2021/05/05 01:36:53;;;;;;;4.90;1.33;;;;;;;7.75;70.96;99102.97;5020945;28;20025;-72
2021/05/05 01:39:18;;;;;;;2.13;0.90;;;;;;;7.68;71.38;99106.59;5019232;28;20041;-72
2021/05/05 01:41:45;;;;;;;5.10;1.30;;;;;;;7.71;71.41;99110.94;5023163;28;20034;-72
2021/05/05 01:44:12;;;;;;;5.70;1.20;;;;;;;7.70;71.24;99107.41;5021978;28;20033;-71
2021/05/05 01:46:47;;;;;;;5.13;1.48;;;;;;;7.66;71.22;99103.13;5022340;28;20022;-72
2021/05/05 01:49:21;;;;;;;5.38;1.40;;;;;;;7.64;71.03;99094.41;5021510;28;20040;-71
2021/05/05 01:51:49;;;;;;;7.90;1.63;;;;;;;7.61;71.30;99107.59;5019227;28;20494;-71
2021/05/05 01:54:14;;;;;;;5.20;1.30;;;;;;;7.61;71.22;99107.59;5024041;28;20425;-71
2021/05/05 01:56:39;;;;;;;6.68;1.58;;;;;;;7.61;71.21;99097.09;5021095;28;20069;-71
2021/05/05 01:59:05;;;;;;;3.08;1.08;;;;;;;7.56;71.61;99097.16;5018489;28;20030;-72
2021/05/05 02:01:30;;;;;;;2.20;0.90;;;;;;;7.56;71.47;99096.31;5022243;28;20741;-71
2021/05/05 02:04:01;;;;;;;7.40;1.40;;;;;;;7.50;71.69;99092.03;5022261;28;20045;-72
2021/05/05 02:06:41;;;;;;;6.65;1.50;;;;;;;7.46;71.75;99091.19;5019105;28;20457;-71
2021/05/05 02:09:26;;;;;;;3.50;0.98;;;;;;;7.38;71.91;99087.81;5024622;28;20057;-71
2021/05/05 02:11:52;;;;;;;4.45;1.02;;;;;;;7.34;71.89;99080.06;5036839;28;20497;-71
2021/05/05 02:14:18;;;;;;;5.72;1.15;;;;;;;7.27;72.47;99089.78;5021062;28;20120;-72
2021/05/05 02:16:44;;;;;;;3.63;1.17;;;;;;;7.27;71.79;99091.53;5021159;28;20117;-72
2021/05/05 02:19:09;;;;;;;4.03;1.33;;;;;;;7.20;72.67;99088.13;5023199;28;20048;-72
2021/05/05 02:21:35;;;;;;;2.58;0.90;;;;;;;7.18;72.24;99089.94;5015317;28;20137;-71
2021/05/05 02:24:00;;;;;;;4.55;0.90;;;;;;;7.15;72.62;99085.59;5035272;28;20108;-71
2021/05/05 02:26:25;;;;;;;4.78;1.33;;;;;;;7.10;72.79;99081.28;5021617;28;20048;-72
2021/05/05 02:28:51;;;;;;;5.38;1.17;;;;;;;7.10;72.54;99087.41;5019660;28;20037;-71
2021/05/05 02:31:39;;;;;;;8.27;1.50;;;;;;;7.06;73.25;99090.09;5020032;28;20044;-72
2021/05/05 02:34:05;;;;;;;4.15;1.42;;;;;;;7.08;73.04;99088.34;5022526;28;20029;-72
2021/05/05 02:36:34;;;;;;;4.55;1.08;;;;;;;7.01;73.11;99088.41;5018833;28;20038;-71
2021/05/05 02:39:03;;;;;;;5.05;1.00;;;;;;;6.99;72.69;99082.31;5021550;28;20375;-72
2021/05/05 02:41:29;;;;;;;4.38;1.42;;;;;;;6.91;73.59;99086.81;5018721;28;20033;-71
2021/05/05 02:43:54;;;;;;;7.32;1.67;;;;;;;6.89;72.90;99085.97;5023243;28;20040;-71
2021/05/05 02:46:20;;;;;;;4.05;1.00;;;;;;;6.92;72.83;99070.19;5018153;28;20560;-71
2021/05/05 02:48:46;;;;;;;4.43;1.52;;;;;;;6.85;73.25;99071.16;5018184;28;20025;-71
2021/05/05 02:51:11;;;;;;;4.68;1.10;;;;;;;6.83;73.12;99066.81;5022019;28;20092;-72
2021/05/05 02:53:37;;;;;;;4.22;1.42;;;;;;;6.82;72.90;99065.97;5019041;28;20038;-71
2021/05/05 02:56:03;;;;;;;3.45;1.20;;;;;;;6.83;73.11;99067.69;5017189;28;20026;-71
2021/05/05 02:58:29;;;;;;;6.78;1.40;;;;;;;6.80;73.50;99068.59;5021117;28;20065;-70
2021/05/05 03:00:54;;;;;;;4.70;1.30;;;;;;;6.83;72.93;99066.81;5021748;28;20124;-72
2021/05/05 03:03:20;;;;;;;5.05;1.50;;;;;;;6.86;72.73;99058.91;5023958;28;20062;-72
2021/05/05 03:05:45;;;;;;;4.53;1.20;;;;;;;6.86;72.56;99067.63;5022586;28;20030;-72
2021/05/05 03:08:13;;;;;;;6.35;1.60;;;;;;;6.82;73.22;99065.97;5019439;28;20413;-72
2021/05/05 03:10:38;;;;;;;5.32;1.30;;;;;;;6.93;72.93;99063.19;5019122;28;20041;-72
2021/05/05 03:13:03;;;;;;;8.40;2.17;;;;;;;6.97;72.93;99065.75;5022401;28;20037;-72
2021/05/05 03:15:29;;;;;;;6.18;1.83;;;;;;;7.00;72.40;99068.31;5019945;28;20037;-72
2021/05/05 03:17:54;;;;;;;6.30;1.77;;;;;;;7.10;72.06;99079.53;5021642;28;20038;-72
2021/05/05 03:20:19;;;;;;;5.57;2.00;;;;;;;7.13;72.11;99081.25;5020867;28;20044;-71
2021/05/05 03:22:45;;;;;;;9.07;2.00;;;;;;;7.16;72.26;99082.06;5020446;28;20034;-71
2021/05/05 03:25:10;;;;;;;7.82;2.20;;;;;;;7.20;71.81;99083.78;5020427;28;20087;-72
2021/05/05 03:27:36;;;;;;;7.22;2.20;;;;;;;7.25;72.07;99076.66;5019693;28;20192;-72
2021/05/05 03:30:04;;;;;;;6.65;1.45;;;;;;;7.30;71.63;99079.22;5022624;28;20029;-72
2021/05/05 03:32:29;;;;;;;8.45;2.17;;;;;;;7.31;71.71;99075.72;5018939;28;20035;-72
2021/05/05 03:34:54;;;;;;;5.47;1.88;;;;;;;7.31;71.82;99080.97;5022528;28;20068;-72
2021/05/05 03:37:20;;;;;;;7.53;1.70;;;;;;;7.34;71.37;99085.31;5019621;28;20029;-71
2021/05/05 03:39:45;;;;;;;5.25;1.23;;;;;;;7.31;71.54;99083.59;5025683;28;20116;-72
2021/05/05 03:42:10;;;;;;;3.78;1.13;;;;;;;7.31;71.07;99083.59;5027164;28;20033;-71
2021/05/05 03:44:36;;;;;;;5.18;1.77;;;;;;;7.26;71.73;99082.81;5019616;28;20037;-72
2021/05/05 03:47:01;;;;;;;5.63;1.73;;;;;;;7.30;71.19;99073.97;5025146;28;20041;-71
2021/05/05 03:49:27;;;;;;;4.38;1.00;;;;;;;7.30;71.21;99071.34;5023672;28;20104;-72
2021/05/05 03:51:52;;;;;;;6.97;1.70;;;;;;;7.25;71.10;99071.41;5025795;28;20529;-70
2021/05/05 03:54:18;;;;;;;7.13;1.63;;;;;;;7.24;71.38;99067.06;5022840;28;20029;-72
2021/05/05 03:56:44;;;;;;;7.45;1.73;;;;;;;7.26;71.38;99072.31;5026004;28;20037;-72
2021/05/05 03:59:09;;;;;;;4.60;1.58;;;;;;;7.25;71.63;99071.41;5021859;28;20088;-71
2021/05/05 04:01:34;;;;;;;6.05;2.00;;;;;;;7.27;71.59;99076.66;5024963;28;20037;-71
2021/05/05 04:04:00;;;;;;;5.22;1.50;;;;;;;7.27;71.66;99074.03;5026836;28;20025;-72
2021/05/05 04:06:25;;;;;;;4.45;1.80;;;;;;;7.29;71.82;99074.00;5024245;28;20489;-72
2021/05/05 04:08:51;;;;;;;6.53;1.20;;;;;;;7.28;71.42;99067.88;5023679;28;20053;-72
2021/05/05 04:11:16;;;;;;;7.68;1.33;;;;;;;7.33;71.60;99067.81;5024916;28;20041;-72
2021/05/05 04:13:41;;;;;;;3.47;1.42;;;;;;;7.36;71.45;99068.63;5022891;28;20033;-72
2021/05/05 04:16:07;;;;;;;17.13;4.00;;;;;;;7.46;72.08;99066.69;5025856;28;20408;-71
2021/05/05 04:18:32;;;;;;;6.97;2.22;;;;;;;7.54;71.37;99059.56;5022345;28;20437;-72
2021/05/05 04:21:02;;;;;;;4.80;1.42;;;;;;;7.58;70.78;99063.03;5025238;28;20029;-72
2021/05/05 04:23:28;;;;;;;4.43;1.17;;;;;;;7.64;70.41;99057.66;5022349;28;20034;-73
2021/05/05 04:25:54;;;;;;;6.45;1.30;;;;;;;7.64;70.59;99060.28;5024792;28;20485;-73
2021/05/05 04:28:20;;;;;;;4.28;1.40;;;;;;;7.72;70.14;99061.00;5023229;28;20034;-72
2021/05/05 04:30:45;;;;;;;4.07;1.50;;;;;;;7.81;69.93;99060.00;5024010;28;20037;-72
2021/05/05 04:33:11;;;;;;;6.45;1.95;;;;;;;7.85;69.86;99057.25;5026551;28;20068;-73
2021/05/05 04:35:36;;;;;;;6.65;1.60;;;;;;;7.90;69.93;99060.66;5027627;28;20104;-72
2021/05/05 04:38:01;;;;;;;3.92;1.63;;;;;;;8.00;69.47;99057.88;5031973;28;20401;-71
2021/05/05 04:40:27;;;;;;;5.53;2.42;;;;;;;8.09;69.07;99045.41;5043456;28;20504;-72
2021/05/05 04:42:52;;;;;;;5.07;1.70;;;;;;;8.18;68.97;99046.13;5031878;28;20156;-72
2021/05/05 04:45:17;;;;;;;3.78;1.40;;;;;;;8.28;68.76;99047.69;5041032;28;20136;-72
2021/05/05 04:47:43;;;;;;;6.05;1.52;;;;;;;8.39;68.52;99057.97;5026127;28;20041;-72
2021/05/05 04:50:10;;;;;;;5.28;1.55;;;;;;;8.56;68.01;99063.75;5022883;28;20042;-72
2021/05/05 04:52:36;;;;;;;6.43;1.52;;;;;;;8.63;67.51;99060.09;5022509;28;20123;-73
2021/05/05 04:55:02;;;;;;;16.25;3.03;;;;;;;8.76;68.98;99055.44;5023454;28;20041;-72
2021/05/05 04:57:27;;;;;;;8.18;3.08;;;;;;;8.95;68.17;99054.09;5021958;28;20034;-72
2021/05/05 04:59:52;;;;;;;11.20;3.95;;;;;;;9.12;68.23;99060.78;5022848;28;20022;-72
2021/05/05 05:02:18;;;;;;;8.35;2.20;;;;;;;9.23;67.02;99061.38;5021740;28;20042;-72
2021/05/05 05:04:44;;;;;;;5.28;1.83;;;;;;;9.14;65.76;99069.47;5025056;28;20136;-72
2021/05/05 05:07:10;;;;;;;9.88;1.90;;;;;;;9.14;66.36;99065.09;5021446;28;20060;-72
2021/05/05 05:09:35;;;;;;;5.85;2.10;;;;;;;9.12;65.79;99074.78;5024632;28;20030;-72
2021/05/05 05:12:01;;;;;;;6.00;1.70;;;;;;;9.21;65.25;99077.19;5021828;28;20478;-72
2021/05/05 05:14:27;;;;;;;6.47;1.40;;;;;;;9.07;65.53;99068.78;5023709;28;20037;-72
2021/05/05 05:16:53;;;;;;;3.28;1.30;;;;;;;9.03;65.64;99072.34;5022814;28;20034;-72
2021/05/05 05:19:18;;;;;;;6.35;1.48;;;;;;;9.04;65.33;99079.38;5022938;28;20452;-72
2021/05/05 05:21:44;;;;;;;5.03;1.55;;;;;;;9.08;65.47;99069.63;5023333;28;20493;-72
2021/05/05 05:24:10;;;;;;;7.28;1.30;;;;;;;9.15;65.27;99076.47;5021840;28;20061;-72
2021/05/05 05:26:35;;;;;;;6.72;1.58;;;;;;;9.20;64.76;99090.41;5027711;28;20485;-72
2021/05/05 05:29:01;;;;;;;4.72;1.30;;;;;;;9.25;64.88;99087.63;5021008;28;20132;-71
2021/05/05 05:31:27;;;;;;;5.70;1.27;;;;;;;9.31;64.50;99085.75;5027580;28;20037;-72
2021/05/05 05:33:53;;;;;;;3.88;1.20;;;;;;;9.27;64.93;99101.63;5024340;28;20055;-72
2021/05/05 05:36:18;;;;;;;3.40;1.40;;;;;;;9.31;64.56;99096.28;5033589;28;20124;-71
2021/05/05 05:38:43;;;;;;;5.05;1.10;;;;;;;9.38;64.56;99104.91;5033826;28;20042;-72
2021/05/05 05:41:09;;;;;;;5.20;1.10;;;;;;;9.36;64.60;99091.75;5025919;28;20034;-71
2021/05/05 05:43:34;;;;;;;5.82;1.55;;;;;;;9.32;64.15;99102.41;5027911;28;20025;-72
2021/05/05 05:45:59;;;;;;;4.78;1.50;;;;;;;9.30;64.82;99096.28;5022577;28;20050;-72
2021/05/05 05:48:24;;;;;;;5.10;1.50;;;;;;;9.34;64.32;99092.69;5033300;28;20035;-72
2021/05/05 05:50:50;;;;;;;7.28;1.80;;;;;;;9.20;65.14;99104.44;5022929;28;20075;-72
2021/05/05 05:53:15;;;;;;;4.40;1.35;;;;;;;9.15;64.45;99101.03;5020267;28;20049;-72
2021/05/05 05:55:44;;;;;;;4.72;1.00;;;;;;;9.07;65.12;99105.63;5023550;28;20030;-72
2021/05/05 05:58:13;;;;;;;5.72;1.58;;;;;;;9.02;64.96;99101.34;5031571;28;20037;-72
2021/05/05 06:00:38;;;;;;;5.32;1.23;;;;;;;9.03;65.30;99106.56;5028301;28;20083;-72
2021/05/05 06:03:06;;;;;;;6.65;1.40;;;;;;;9.11;64.48;99112.53;5021180;28;20033;-71
2021/05/05 06:05:33;;;;;;;5.90;1.13;;;;;;;9.27;64.06;99105.13;5022724;28;20030;-71
2021/05/05 06:07:58;;;;;;;5.32;1.10;;;;;;;9.32;63.16;99105.88;5021323;28;20037;-72
2021/05/05 06:10:24;;;;;;;5.32;1.27;;;;;;;9.43;63.33;99098.63;5021997;28;20108;-72
2021/05/05 06:12:49;;;;;;;4.05;1.40;;;;;;;9.43;63.54;99101.25;5022146;28;20061;-72
2021/05/05 06:15:15;;;;;;;3.33;1.20;;;;;;;9.46;63.32;99096.78;5023257;28;20486;-71
2021/05/05 06:17:41;;;;;;;3.78;1.40;;;;;;;9.48;62.74;99089.72;5024231;28;20137;-72
2021/05/05 06:20:08;;;;;;;6.28;2.08;;;;;;;9.48;62.34;99089.72;5019991;28;20557;-72
2021/05/05 06:22:33;;;;;;;6.50;1.67;;;;;;;9.37;62.65;99092.63;5027058;28;20040;-71
2021/05/05 06:24:58;;;;;;;5.60;1.30;;;;;;;9.30;62.29;99094.56;5019970;28;20033;-72
2021/05/05 06:27:24;;;;;;;6.55;1.88;;;;;;;9.28;62.09;99093.72;5022859;28;20033;-71
2021/05/05 06:29:49;;;;;;;4.75;1.55;;;;;;;9.34;62.85;99079.53;5020867;28;20072;-72
2021/05/05 06:32:15;;;;;;;5.03;1.40;;;;;;;9.49;62.42;99075.66;5021689;28;20040;-72
2021/05/05 06:34:40;;;;;;;7.13;2.38;;;;;;;9.69;62.17;99078.63;5020325;28;20041;-72
2021/05/05 06:37:06;;;;;;;7.38;1.58;;;;;;;9.96;61.05;99084.97;5021006;28;20040;-72
2021/05/05 06:39:32;;;;;;;5.43;1.63;;;;;;;10.17;60.73;99085.31;5022482;28;20124;-72
2021/05/05 06:41:57;;;;;;;4.18;1.10;;;;;;;10.13;59.68;99084.50;5019857;28;20109;-73
2021/05/05 06:44:23;;;;;;;4.20;1.27;;;;;;;10.28;59.74;99083.25;5023266;28;20045;-73
2021/05/05 06:46:51;;;;;;;6.60;1.27;;;;;;;10.33;59.31;99089.28;5019559;28;20041;-72
2021/05/05 06:49:16;;;;;;;4.50;1.25;;;;;;;10.31;58.38;99088.44;5022879;28;20029;-72
2021/05/05 06:51:42;;;;;;;3.65;1.10;;;;;;;10.40;58.23;99087.31;5019895;28;20499;-72
2021/05/05 06:54:08;;;;;;;3.28;1.20;;;;;;;10.50;57.68;99081.72;5021971;28;20045;-72
2021/05/05 06:56:33;;;;;;;3.13;1.17;;;;;;;10.62;57.98;99084.94;5027870;28;20022;-72
2021/05/05 06:58:59;;;;;;;6.65;1.27;;;;;;;10.71;57.39;99092.56;5021351;28;20033;-72
2021/05/05 07:01:24;;;;;;;4.22;1.20;;;;;;;10.65;55.20;99084.84;5020583;28;20062;-72
2021/05/05 07:03:49;;;;;;;5.13;1.90;;;;;;;10.81;54.17;99087.88;5022261;28;20501;-72
2021/05/05 07:06:15;;;;;;;6.07;1.30;;;;;;;10.94;53.53;99090.09;5019624;28;20037;-72
2021/05/05 07:08:40;;;;;;;5.05;1.20;;;;;;;11.07;53.32;99084.44;5022957;28;20112;-72
2021/05/05 07:11:06;;;;;;;4.55;1.67;;;;;;;11.21;54.17;99103.34;5019437;28;20033;-72
2021/05/05 07:13:31;;;;;;;5.93;1.23;;;;;;;11.11;50.49;99096.66;5022532;28;20515;-72
2021/05/05 07:15:56;;;;;;;5.22;1.27;;;;;;;11.15;51.26;99099.13;5020126;28;20541;-72
2021/05/05 07:18:22;;;;;;;5.68;1.58;;;;;;;11.36;49.78;99091.44;5020275;28;20065;-73
2021/05/05 07:20:47;;;;;;;7.70;2.10;;;;;;;11.38;50.21;99094.91;5023283;28;20504;-72
2021/05/05 07:23:13;;;;;;;6.13;1.40;;;;;;;11.26;48.96;99090.84;5024325;28;20033;-73
2021/05/05 07:25:38;;;;;;;5.18;1.10;;;;;;;11.24;49.92;99099.75;5026028;28;20060;-72
2021/05/05 07:28:03;;;;;;;4.65;1.30;;;;;;;11.18;50.44;99098.16;5023544;28;20124;-72
2021/05/05 07:30:29;;;;;;;4.47;1.38;;;;;;;11.29;50.73;99101.34;5026871;28;20041;-72
2021/05/05 07:32:54;;;;;;;6.43;1.83;;;;;;;11.25;49.25;99110.28;5023074;28;20072;-72
2021/05/05 07:35:21;;;;;;;6.97;1.73;;;;;;;11.27;49.23;99097.03;5027706;28;20386;-72
2021/05/05 07:43:35;;;;;;;6.82;2.17;;;;;;;11.57;47.51;99106.56;5022865;28;20030;-72
2021/05/05 07:46:33;;;;;;;5.75;1.15;;;;;;;11.59;48.56;99114.47;5026159;28;20037;-72
2021/05/05 07:51:03;;;;;;;4.60;1.42;;;;;;;11.23;48.80;99117.38;5024678;28;20056;-72
2021/05/05 07:53:28;;;;;;;4.65;1.45;;;;;;;11.05;48.59;99152.25;5023872;28;20048;-72
2021/05/05 07:55:55;;;;;;;6.35;1.27;;;;;;;10.93;49.48;99141.16;5026992;28;20033;-72
2021/05/05 07:58:21;;;;;;;9.63;1.60;;;;;;;10.86;47.26;99150.16;5027495;28;20034;-72
2021/05/05 08:00:47;;;;;;;7.25;1.30;;;;;;;10.86;48.22;99149.31;5025743;28;20045;-72
2021/05/05 08:03:12;;;;;;;6.65;1.55;;;;;;;10.89;47.78;99147.44;5022387;28;20045;-72
2021/05/05 08:05:37;;;;;;;5.22;1.77;;;;;;;11.19;47.65;99143.03;5021236;28;20506;-72
2021/05/05 08:08:03;;;;;;;8.82;1.70;;;;;;;11.23;48.00;99142.91;5025481;28;20541;-72
2021/05/05 08:10:28;;;;;;;6.03;1.88;;;;;;;11.17;47.69;99138.69;5022064;28;20390;-73
2021/05/05 08:12:54;;;;;;;5.13;1.70;;;;;;;11.19;47.66;99132.47;5022471;28;20034;-72
2021/05/05 08:15:20;;;;;;;4.35;1.60;;;;;;;11.30;48.22;99133.91;5047698;28;20040;-73
2021/05/05 08:17:46;;;;;;;8.40;1.30;;;;;;;11.50;46.12;99128.84;5027252;28;20371;-73
2021/05/05 08:20:12;;;;;;;6.05;1.65;;;;;;;11.67;45.97;99149.44;5025675;28;20042;-73
2021/05/05 08:22:38;;;;;;;5.50;1.65;;;;;;;11.90;44.36;99139.91;5043574;28;20056;-73
2021/05/05 08:25:04;;;;;;;6.50;1.95;;;;;;;11.92;46.18;99148.63;5022234;28;20030;-72
2021/05/05 08:27:29;;;;;;;3.65;1.40;;;;;;;12.22;41.79;99152.88;5025677;28;20408;-73
2021/05/05 08:29:55;;;;;;;4.93;1.48;;;;;;;12.26;42.40;99136.00;5022302;28;20037;-72
2021/05/05 08:32:21;;;;;;;7.47;1.77;;;;;;;12.48;40.73;99133.44;5024481;28;20146;-73
2021/05/05 08:34:46;;;;;;;5.70;1.30;;;;;;;12.30;40.08;99163.19;5024149;28;20037;-73
2021/05/05 08:37:12;;;;;;;3.63;1.30;;;;;;;12.33;38.36;99149.00;5036633;28;20033;-73
2021/05/05 08:39:37;;;;;;;7.65;1.50;;;;;;;12.40;39.17;99138.16;5040565;28;20041;-73
2021/05/05 08:42:03;;;;;;;3.55;1.30;;;;;;;12.58;40.63;99133.97;5024120;28;20048;-72
2021/05/05 08:44:29;;;;;;;5.43;1.27;;;;;;;12.76;40.45;99131.56;5022695;28;20049;-73
2021/05/05 08:46:55;;;;;;;4.10;1.25;;;;;;;12.79;38.19;99131.47;5026384;28;20041;-73
2021/05/05 08:49:21;;;;;;;3.70;1.40;;;;;;;12.63;38.22;99158.50;5040175;28;20163;-73
2021/05/05 08:51:47;;;;;;;8.00;2.00;;;;;;;12.58;38.49;99141.06;5030456;28;20033;-73
2021/05/05 08:54:14;;;;;;;5.20;1.55;;;;;;;12.50;38.95;99126.31;5032447;28;20069;-73
2021/05/05 08:56:40;;;;;;;3.97;1.40;;;;;;;12.39;38.44;99164.66;5024529;28;20763;-73
2021/05/05 08:59:11;;;;;;;3.88;1.00;;;;;;;12.34;39.44;99150.72;5022446;28;20095;-73
2021/05/05 09:01:37;;;;;;;7.47;1.57;;;;;;;12.15;38.22;99146.06;5024407;28;20052;-73
2021/05/05 09:04:04;;;;;;;4.05;1.30;;;;;;;12.24;38.46;99144.91;5022489;28;20117;-72
2021/05/05 09:06:46;;;;;;;4.05;1.30;;;;;;;12.47;37.74;99152.91;5023748;28;20052;-72
2021/05/05 09:09:30;;;;;;;3.92;1.40;;;;;;;12.42;38.88;99132.81;5021503;28;20502;-73
2021/05/05 09:11:56;;;;;;;5.55;1.40;;;;;;;12.33;38.97;99144.56;5022426;28;20052;-72
2021/05/05 09:14:21;;;;;;;3.90;1.63;;;;;;;12.44;38.78;99142.44;5023132;28;20109;-73
2021/05/05 09:16:47;;;;;;;4.35;1.17;;;;;;;12.64;37.65;99148.78;5023397;28;20432;-73
2021/05/05 09:19:12;;;;;;;3.97;1.30;;;;;;;12.49;38.09;99144.88;5021931;28;20038;-72
2021/05/05 09:21:40;;;;;;;3.50;1.42;;;;;;;12.20;39.30;99141.50;5022749;28;20408;-73
2021/05/05 09:24:28;;;;;;;4.72;1.30;;;;;;;12.33;37.25;99138.41;5021519;28;20030;-73
2021/05/05 09:27:03;;;;;;;4.57;1.33;;;;;;;12.65;37.60;99124.91;5021503;28;20049;-73
2021/05/05 09:29:44;;;;;;;5.60;1.10;;;;;;;12.85;35.63;99141.81;5021031;28;20041;-71
2021/05/05 09:32:11;;;;;;;5.13;1.45;;;;;;;13.03;35.84;99132.31;5022222;28;20180;-73
2021/05/05 09:34:37;;;;;;;7.25;1.70;;;;;;;13.28;37.04;99129.59;5022113;28;20040;-72
2021/05/05 09:37:06;;;;;;;3.75;1.20;;;;;;;13.42;37.46;99142.31;5021568;28;20470;-72
2021/05/05 09:39:34;;;;;;;9.30;1.25;;;;;;;12.95;36.21;99132.59;5022262;28;20037;-73
2021/05/05 09:42:00;;;;;;;4.25;1.42;;;;;;;12.84;36.15;99134.81;5021274;28;20517;-73
2021/05/05 09:44:27;;;;;;;6.90;1.40;;;;;;;12.71;37.39;99139.69;5023353;28;20056;-73
2021/05/05 09:46:56;;;;;;;6.35;1.48;;;;;;;12.72;38.25;99131.66;5024461;28;20022;-72
2021/05/05 09:49:36;;;;;;;3.90;1.30;;;;;;;12.81;39.15;99135.78;5022847;28;20037;-73
2021/05/05 09:52:05;;;;;;;3.15;1.13;;;;;;;12.98;39.01;99116.59;5021834;28;20034;-72
2021/05/05 09:54:40;;;;;;;5.53;1.40;;;;;;;13.30;36.96;99119.78;5022341;28;20033;-72
2021/05/05 09:57:23;;;;;;;3.33;1.10;;;;;;;13.32;37.17;99116.16;5018378;28;20482;-73
2021/05/05 09:59:55;;;;;;;3.17;1.10;;;;;;;13.33;36.45;99122.31;5021220;28;20402;-73
2021/05/05 10:02:21;;;;;;;6.65;1.83;;;;;;;13.23;36.89;99127.09;5021587;28;20452;-73
2021/05/05 10:05:06;;;;;;;7.35;1.23;;;;;;;13.43;37.84;99131.63;5020787;28;20057;-73
2021/05/05 10:07:57;;;;;;;4.32;1.40;;;;;;;13.36;37.51;99127.50;5021129;28;20045;-75
2021/05/05 10:10:26;;;;;;;3.45;1.00;;;;;;;12.95;36.22;99106.13;5025384;28;20068;-72
2021/05/05 10:12:54;;;;;;;6.45;1.55;;;;;;;12.64;37.31;99133.75;5025051;28;20478;-70
2021/05/05 10:15:19;;;;;;;5.97;1.35;;;;;;;12.90;36.45;99135.41;5022331;28;20077;-73
2021/05/05 10:17:48;;;;;;;15.70;1.65;;;;;;;13.16;36.54;99136.22;5022413;28;20053;-73
2021/05/05 10:20:16;;;;;;;10.13;1.88;;;;;;;12.76;38.83;99163.31;5021385;28;20409;-73
2021/05/05 10:22:42;;;;;;;13.40;1.65;;;;;;;12.25;40.65;99195.09;5022243;28;20386;-73
2021/05/05 10:25:08;;;;;;;6.90;1.55;;;;;;;11.68;41.35;99179.34;5019833;28;20045;-73
2021/05/05 10:27:33;;;;;;;4.25;0.93;;;;;;;11.41;40.81;99169.63;5022684;28;20029;-73
2021/05/05 10:29:59;;;;;;;5.35;1.45;;;;;;;11.40;42.36;99157.34;5024378;28;20029;-73
2021/05/05 10:32:31;;;;;;;2.75;0.90;;;;;;;11.67;42.19;99160.00;5015638;28;20124;-73
2021/05/05 10:34:57;;;;;;;4.27;1.23;;;;;;;11.89;39.87;99162.81;5023974;28;20516;-72
2021/05/05 10:37:39;;;;;;;5.05;1.08;;;;;;;12.18;40.43;99159.22;5028494;28;20040;-72
2021/05/05 10:40:15;;;;;;;3.80;1.08;;;;;;;12.46;38.75;99140.56;5020557;28;20030;-73
2021/05/05 10:42:59;;;;;;;5.57;1.00;;;;;;;12.69;38.71;99152.97;5023213;28;20025;-73
2021/05/05 10:45:36;;;;;;;6.43;1.48;;;;;;;12.81;38.65;99132.25;5028856;28;20041;-73
2021/05/05 10:48:15;;;;;;;6.35;1.50;;;;;;;12.97;38.58;99151.06;5019139;28;20044;-72
2021/05/05 10:50:58;;;;;;;3.47;1.30;;;;;;;13.12;38.54;99131.94;5018541;28;20555;-73
2021/05/05 10:53:50;;;;;;;4.50;1.38;;;;;;;13.52;37.04;99139.22;5019240;28;20029;-72
2021/05/05 10:56:29;;;;;;;4.25;1.20;;;;;;;13.62;35.16;99115.84;5017200;28;20036;-73
2021/05/05 10:59:09;;;;;;;5.30;1.60;;;;;;;13.33;35.92;99175.31;5039202;28;20436;-72
2021/05/05 11:01:37;;;;;;;4.68;1.40;;;;;;;13.07;35.42;99137.44;5028851;28;20048;-72
2021/05/05 11:04:03;;;;;;;9.15;1.60;;;;;;;13.02;36.84;99167.66;5025488;28;20038;-72
2021/05/05 11:06:35;;;;;;;8.73;1.38;;;;;;;12.96;36.58;99158.16;5025619;28;20037;-72
2021/05/05 11:09:09;;;;;;;4.82;1.02;;;;;;;12.76;35.61;99169.50;5024554;28;20562;-72
2021/05/05 11:11:36;;;;;;;5.85;1.10;;;;;;;12.55;36.74;99179.09;5025077;28;20509;-73
2021/05/05 11:14:02;;;;;;;6.28;1.17;;;;;;;12.33;38.56;99178.97;5022780;28;20378;-72
2021/05/05 11:16:54;;;;;;;3.97;0.80;;;;;;;11.96;38.04;99187.28;5022343;28;20112;-72
2021/05/05 11:19:35;;;;;;;3.00;1.05;;;;;;;11.95;39.33;99178.50;5023501;28;20409;-72
2021/05/05 11:22:00;;;;;;;6.47;1.17;;;;;;;11.87;39.45;99171.72;5020347;28;20502;-72
2021/05/05 11:24:28;;;;;;;4.43;0.90;;;;;;;11.95;39.39;99170.56;5023733;28;20068;-73
2021/05/05 11:26:53;;;;;;;2.97;0.70;;;;;;;12.30;38.84;99173.78;5019933;28;20045;-73
2021/05/05 11:29:35;;;;;;;3.95;1.13;;;;;;;12.94;38.97;99168.81;5024258;28;20099;-73
2021/05/05 11:32:04;;;;;;;5.32;0.90;;;;;;;13.56;36.64;99156.72;5019058;28;20405;-73
2021/05/05 11:34:35;;;;;;;4.70;1.33;;;;;;;14.39;36.40;99152.41;5022433;28;20478;-72
2021/05/05 11:37:00;;;;;;;3.55;1.00;;;;;;;14.33;36.58;99142.03;5019707;28;20445;-73
2021/05/05 11:39:34;;;;;;;4.68;1.25;;;;;;;13.87;37.88;99152.81;5019521;28;20042;-72
2021/05/05 11:42:02;;;;;;;4.30;1.10;;;;;;;13.70;39.40;99173.84;5025017;28;20556;-73
2021/05/05 11:44:42;;;;;;;4.03;1.20;;;;;;;13.53;39.98;99177.19;5035428;28;20021;-73
2021/05/05 11:47:19;;;;;;;3.50;1.20;;;;;;;13.82;38.54;99168.91;5020213;28;20485;-73
2021/05/05 11:49:50;;;;;;;8.80;1.08;;;;;;;14.16;37.40;99162.19;5025756;28;20041;-72